Time;durP1;ratioP1;P1;durP2;ratioP2;P2;SDS_P1;SDS_P2;PMS_P1;PMS_P2;Temp;Humidity;BMP_temperature;BMP_pressure;BME280_temperature;BME280_humidity;BME280_pressure;Samples;Min_cycle;Max_cycle;Signal;HPM_P1;HPM_P2
2022/09/22 00:00:09;;;;;;;18.98;14.52;;;;;;;9.39;100.00;102310.25;5071955;28;20039;-71
2022/09/22 00:02:35;;;;;;;20.75;15.18;;;;;;;9.37;100.00;102306.03;5069614;28;20374;-71
2022/09/22 00:05:02;;;;;;;19.88;15.40;;;;;;;9.29;100.00;102304.25;5073847;28;20107;-71
2022/09/22 00:07:28;;;;;;;20.65;15.20;;;;;;;9.28;100.00;102302.56;5072251;28;20383;-72
2022/09/22 00:09:54;;;;;;;19.15;15.35;;;;;;;9.30;100.00;102308.63;5074003;28;20028;-71
2022/09/22 00:12:20;;;;;;;21.63;15.65;;;;;;;9.23;100.00;102296.88;5072683;28;20455;-72
2022/09/22 00:14:46;;;;;;;17.13;14.52;;;;;;;9.23;100.00;102296.88;5072710;28;20465;-71
2022/09/22 00:17:11;;;;;;;19.77;15.82;;;;;;;9.22;100.00;102301.44;5076624;28;20068;-71
2022/09/22 00:19:38;;;;;;;20.30;15.52;;;;;;;9.20;100.00;102295.34;5072110;28;20031;-71
2022/09/22 00:22:04;;;;;;;17.38;15.18;;;;;;;9.15;100.00;102297.78;5073052;28;20032;-71
2022/09/22 00:24:30;;;;;;;22.33;15.98;;;;;;;9.14;100.00;102295.25;5072764;28;20035;-71
2022/09/22 00:26:58;;;;;;;20.15;15.82;;;;;;;9.12;100.00;102298.13;5076108;28;20020;-71
2022/09/22 00:29:25;;;;;;;20.55;15.45;;;;;;;9.13;100.00;102293.56;5090021;28;20093;-71
2022/09/22 00:31:50;;;;;;;19.95;14.80;;;;;;;9.10;100.00;102294.75;5085662;28;20032;-72
2022/09/22 00:34:18;;;;;;;20.95;15.00;;;;;;;9.09;100.00;102298.50;5073877;28;20051;-71
2022/09/22 00:36:45;;;;;;;18.52;15.38;;;;;;;9.06;100.00;102298.84;5073097;28;20024;-71
2022/09/22 00:39:11;;;;;;;18.90;15.88;;;;;;;9.05;100.00;102297.16;5073753;28;20028;-72
2022/09/22 00:41:40;;;;;;;21.70;14.95;;;;;;;9.02;100.00;102301.06;5072122;28;20503;-71
2022/09/22 00:44:36;;;;;;;20.88;15.25;;;;;;;9.05;100.00;102297.16;5072608;28;20047;-71
2022/09/22 00:47:19;;;;;;;18.55;14.32;;;;;;;8.98;100.00;102291.66;5072197;28;20119;-71
2022/09/22 00:50:22;;;;;;;19.05;15.13;;;;;;;9.01;100.00;102295.84;5078536;28;20071;-71
2022/09/22 00:53:06;;;;;;;16.52;14.63;;;;;;;8.92;100.00;102296.91;5091368;28;20055;-71
2022/09/22 00:55:50;;;;;;;18.92;14.70;;;;;;;8.90;100.00;102282.75;5089226;28;20115;-71
2022/09/22 00:58:19;;;;;;;19.98;15.57;;;;;;;8.89;100.00;102292.69;5072096;28;20107;-71
2022/09/22 01:00:45;;;;;;;21.38;15.32;;;;;;;8.84;100.00;102284.31;5069757;28;20707;-72
2022/09/22 01:03:14;;;;;;;18.67;15.18;;;;;;;8.81;100.00;102285.50;5081700;28;20111;-71
2022/09/22 01:05:42;;;;;;;23.10;15.65;;;;;;;8.82;100.00;102287.19;5076068;28;20080;-72
2022/09/22 01:08:11;;;;;;;18.17;15.05;;;;;;;8.84;100.00;102274.34;5071750;28;20032;-72
2022/09/22 01:10:37;;;;;;;20.30;15.68;;;;;;;8.82;100.00;102271.00;5070536;28;20101;-72
2022/09/22 01:13:21;;;;;;;19.23;16.13;;;;;;;8.79;100.00;102284.00;5091520;28;20024;-71
2022/09/22 01:16:06;;;;;;;18.30;16.05;;;;;;;8.81;100.00;102257.66;5080570;28;20541;-71
2022/09/22 01:18:38;;;;;;;19.00;15.68;;;;;;;8.79;100.00;102257.84;5080038;28;20035;-71
2022/09/22 01:21:27;;;;;;;17.83;15.73;;;;;;;8.81;100.00;102252.28;5071197;28;20056;-71
2022/09/22 01:24:36;;;;;;;17.77;15.25;;;;;;;8.81;100.00;102252.28;5071466;28;20027;-72
2022/09/22 01:27:29;;;;;;;18.67;15.60;;;;;;;8.79;100.00;102257.03;5072024;28;20028;-71
2022/09/22 01:30:20;;;;;;;19.35;16.02;;;;;;;8.72;100.00;102256.03;5072291;28;20360;-71
2022/09/22 01:33:07;;;;;;;17.97;15.93;;;;;;;8.75;100.00;102258.38;5078897;28;20103;-71
2022/09/22 01:35:58;;;;;;;20.40;15.85;;;;;;;8.73;100.00;102258.56;5071123;28;20463;-72
2022/09/22 01:38:34;;;;;;;22.35;16.95;;;;;;;8.67;100.00;102256.59;5071978;28;20031;-71
2022/09/22 01:41:09;;;;;;;18.98;16.02;;;;;;;8.61;100.00;102255.44;5070606;28;20032;-71
2022/09/22 01:43:41;;;;;;;21.65;15.68;;;;;;;8.59;100.00;102254.78;5072288;28;20024;-71
2022/09/22 01:46:17;;;;;;;17.75;15.63;;;;;;;8.55;100.00;102242.66;5071709;28;20028;-71
2022/09/22 01:48:47;;;;;;;19.58;16.23;;;;;;;8.51;100.00;102250.25;5071359;28;20033;-71
2022/09/22 01:51:38;;;;;;;21.23;15.95;;;;;;;8.56;100.00;102244.34;5070549;28;20471;-71
2022/09/22 01:54:11;;;;;;;19.42;15.85;;;;;;;8.52;100.00;102243.00;5073221;28;20460;-71
2022/09/22 01:56:39;;;;;;;19.30;15.90;;;;;;;8.49;100.00;102243.34;5071474;28;20035;-72
2022/09/22 01:59:08;;;;;;;20.05;16.00;;;;;;;8.46;100.00;102233.75;5073953;28;20882;-72
2022/09/22 02:01:40;;;;;;;19.17;16.42;;;;;;;8.48;100.00;102238.97;5078978;28;20024;-71
2022/09/22 02:04:10;;;;;;;;;;;;;;;8.66;100.00;102234.13;5075659;28;20047;-71
2022/09/22 02:06:42;;;;;;;21.67;16.42;;;;;;;8.48;100.00;102228.19;5070919;28;19920;-72
2022/09/22 02:09:15;;;;;;;19.23;17.15;;;;;;;8.50;100.00;102234.25;5075328;28;20036;-71
2022/09/22 02:11:41;;;;;;;17.67;15.65;;;;;;;8.42;100.00;102227.00;5075513;28;20471;-71
2022/09/22 02:14:07;;;;;;;17.58;15.68;;;;;;;8.41;100.00;102222.63;5075684;28;20052;-71
2022/09/22 02:16:33;;;;;;;19.13;15.93;;;;;;;8.40;100.00;102228.19;5077973;28;20028;-72
2022/09/22 02:18:59;;;;;;;18.63;15.80;;;;;;;8.34;100.00;102227.88;5076696;28;20027;-72
2022/09/22 02:21:26;;;;;;;21.73;16.90;;;;;;;8.36;100.00;102226.88;5079915;28;20024;-71
2022/09/22 02:23:52;;;;;;;18.80;16.02;;;;;;;8.37;100.00;102217.78;5089695;28;20032;-71
2022/09/22 02:26:22;;;;;;;18.95;15.43;;;;;;;8.32;100.00;102213.75;5087663;28;20032;-71
2022/09/22 02:29:09;;;;;;;19.52;16.08;;;;;;;8.32;100.00;102210.22;5078441;28;20490;-72
2022/09/22 02:31:38;;;;;;;19.67;16.13;;;;;;;8.28;100.00;102209.69;5074057;28;20033;-71
2022/09/22 02:34:05;;;;;;;20.85;14.93;;;;;;;8.29;100.00;102206.00;5078396;28;20048;-71
2022/09/22 02:36:53;;;;;;;18.10;15.20;;;;;;;8.31;100.00;102209.34;5075941;28;20021;-71
2022/09/22 02:39:36;;;;;;;18.60;14.93;;;;;;;8.26;100.00;102213.63;5075541;28;20036;-71
2022/09/22 02:42:29;;;;;;;19.70;15.57;;;;;;;8.24;100.00;102202.97;5075375;28;20032;-71
2022/09/22 02:45:08;;;;;;;20.08;15.35;;;;;;;8.20;100.00;102206.19;5076774;28;20028;-71
2022/09/22 02:47:51;;;;;;;18.00;15.43;;;;;;;8.17;100.00;102199.31;5088018;28;20036;-71
2022/09/22 02:50:21;;;;;;;19.17;15.15;;;;;;;8.19;100.00;102199.16;5091266;28;20027;-72
2022/09/22 02:52:51;;;;;;;16.95;14.95;;;;;;;8.11;100.00;102191.94;5075312;28;20032;-71
2022/09/22 02:55:16;;;;;;;18.90;15.40;;;;;;;8.12;100.00;102190.91;5086988;28;20031;-71
2022/09/22 02:57:42;;;;;;;18.65;15.07;;;;;;;8.11;100.00;102192.78;5076476;28;20029;-72
2022/09/22 03:00:09;;;;;;;16.35;14.52;;;;;;;8.10;100.00;102195.63;5074758;28;20101;-71
2022/09/22 03:02:34;;;;;;;18.10;15.25;;;;;;;8.11;100.00;102186.56;5072209;28;20037;-71
2022/09/22 03:05:00;;;;;;;19.23;15.10;;;;;;;8.05;100.00;102187.25;5075056;28;20029;-72
2022/09/22 03:07:25;;;;;;;17.85;14.80;;;;;;;8.03;100.00;102191.97;5074763;28;20037;-72
2022/09/22 03:09:51;;;;;;;18.60;16.60;;;;;;;8.03;100.00;102189.25;5074952;28;20043;-71
2022/09/22 03:12:16;;;;;;;16.75;15.15;;;;;;;8.05;100.00;102189.94;5073594;28;20464;-71
2022/09/22 03:14:42;;;;;;;19.48;15.70;;;;;;;8.01;100.00;102185.91;5074109;28;20039;-71
2022/09/22 03:17:08;;;;;;;19.98;15.65;;;;;;;8.00;100.00;102185.06;5078250;28;20111;-71
2022/09/22 03:19:33;;;;;;;16.75;14.98;;;;;;;8.00;100.00;102185.06;5081346;28;20477;-71
2022/09/22 03:21:58;;;;;;;17.80;15.07;;;;;;;7.98;100.00;102182.53;5077277;28;20483;-71
2022/09/22 03:24:24;;;;;;;18.85;14.93;;;;;;;7.99;100.00;102178.84;5095530;28;20031;-71
2022/09/22 03:26:49;;;;;;;18.33;15.20;;;;;;;7.97;100.00;102178.19;5094914;28;20031;-71
2022/09/22 03:29:14;;;;;;;18.42;15.38;;;;;;;7.97;100.00;102182.72;5093875;28;20023;-71
2022/09/22 03:31:40;;;;;;;17.05;14.95;;;;;;;7.91;100.00;102180.72;5093560;28;20024;-71
2022/09/22 03:34:05;;;;;;;18.48;15.48;;;;;;;7.91;100.00;102180.72;5074073;28;20468;-71
2022/09/22 03:36:31;;;;;;;19.05;15.13;;;;;;;7.89;100.00;102167.41;5077947;28;20029;-71
2022/09/22 03:38:56;;;;;;;17.75;14.27;;;;;;;7.89;100.00;102172.81;5088379;28;20020;-71
2022/09/22 03:41:21;;;;;;;21.92;15.70;;;;;;;7.89;100.00;102177.38;5073677;28;20059;-71
2022/09/22 03:43:47;;;;;;;18.08;15.25;;;;;;;7.87;100.00;102169.47;5074166;28;20051;-71
2022/09/22 03:46:13;;;;;;;18.27;14.70;;;;;;;7.84;100.00;102169.81;5073940;28;20378;-71
2022/09/22 03:48:38;;;;;;;18.30;15.77;;;;;;;7.81;100.00;102170.97;5090446;28;20069;-72
2022/09/22 03:51:04;;;;;;;18.10;14.68;;;;;;;7.78;100.00;102165.94;5089915;28;20036;-71
2022/09/22 03:53:29;;;;;;;16.23;14.63;;;;;;;7.77;100.00;102166.13;5079718;28;20459;-72
2022/09/22 03:56:24;;;;;;;18.20;15.43;;;;;;;7.85;100.00;102165.25;5072357;28;20032;-72
2022/09/22 03:58:49;;;;;;;16.40;14.70;;;;;;;7.76;100.00;102164.44;5069793;28;20442;-72
2022/09/22 04:01:15;;;;;;;16.75;14.93;;;;;;;7.75;100.00;102170.84;5071771;28;20024;-71
2022/09/22 04:03:40;;;;;;;21.55;15.65;;;;;;;7.74;100.00;102159.22;5073584;28;20032;-71
2022/09/22 04:06:06;;;;;;;19.73;17.00;;;;;;;7.74;100.00;102169.16;5073435;28;20504;-71
2022/09/22 04:08:32;;;;;;;21.08;15.30;;;;;;;7.70;100.00;102160.59;5087618;28;20024;-71
2022/09/22 04:10:58;;;;;;;19.25;15.60;;;;;;;7.65;100.00;102165.66;5087590;28;20033;-72
2022/09/22 04:13:24;;;;;;;19.15;14.80;;;;;;;7.65;100.00;102157.56;5072192;28;20021;-71
2022/09/22 04:15:49;;;;;;;20.55;16.52;;;;;;;7.67;100.00;102157.38;5086367;28;20021;-71
2022/09/22 04:18:15;;;;;;;21.02;15.23;;;;;;;7.66;100.00;102161.94;5073389;28;20032;-71
2022/09/22 04:20:42;;;;;;;18.70;14.90;;;;;;;7.63;100.00;102155.03;5072053;28;20106;-71
2022/09/22 04:23:09;;;;;;;23.05;15.50;;;;;;;7.55;100.00;102154.22;5073007;28;20036;-71
2022/09/22 04:25:34;;;;;;;18.90;14.80;;;;;;;7.56;100.00;102151.38;5074926;28;20434;-72
2022/09/22 04:28:00;;;;;;;17.42;14.80;;;;;;;7.53;100.00;102151.69;5076273;28;20012;-71
2022/09/22 04:30:25;;;;;;;21.23;14.73;;;;;;;7.50;100.00;102148.53;5073483;28;20020;-71
2022/09/22 04:32:50;;;;;;;20.08;14.60;;;;;;;7.48;100.00;102143.31;5072576;28;20020;-71
2022/09/22 04:35:16;;;;;;;17.17;14.90;;;;;;;7.50;100.00;102156.59;5072494;28;20043;-72
2022/09/22 04:37:44;;;;;;;17.90;15.25;;;;;;;7.50;100.00;102145.84;5076772;28;20119;-71
2022/09/22 04:40:12;;;;;;;17.55;15.65;;;;;;;7.47;100.00;102152.41;5079231;28;20077;-72
2022/09/22 04:42:38;;;;;;;17.70;14.68;;;;;;;7.45;100.00;102159.81;5072996;28;20036;-71
2022/09/22 04:45:05;;;;;;;20.77;14.55;;;;;;;7.43;100.00;102156.47;5073198;28;20028;-71
2022/09/22 04:47:31;;;;;;;21.83;14.35;;;;;;;7.40;100.00;102149.56;5087600;28;20035;-72
2022/09/22 04:49:57;;;;;;;16.92;14.65;;;;;;;7.40;100.00;102156.81;5073125;28;20017;-71
2022/09/22 04:52:22;;;;;;;19.02;15.15;;;;;;;7.39;100.00;102152.44;5080457;28;20032;-71
2022/09/22 04:54:48;;;;;;;19.85;15.20;;;;;;;7.40;100.00;102151.44;5072581;28;20031;-72
2022/09/22 04:57:13;;;;;;;15.80;14.23;;;;;;;7.37;100.00;102157.16;5071214;28;20032;-71
2022/09/22 04:59:38;;;;;;;19.30;16.13;;;;;;;7.33;100.00;102147.72;5071224;28;20121;-71
2022/09/22 05:02:04;;;;;;;17.50;14.90;;;;;;;7.34;100.00;102147.56;5069585;28;20375;-72
2022/09/22 05:04:29;;;;;;;22.45;15.77;;;;;;;7.31;100.00;102160.50;5071196;28;20032;-71
2022/09/22 05:06:55;;;;;;;17.38;15.23;;;;;;;7.33;100.00;102161.19;5071529;28;20025;-71
2022/09/22 05:09:20;;;;;;;18.60;15.73;;;;;;;7.26;100.00;102148.41;5072671;28;20469;-71
2022/09/22 05:11:47;;;;;;;21.38;16.52;;;;;;;7.32;100.00;102154.13;5071884;28;20032;-71
2022/09/22 05:14:14;;;;;;;19.55;16.23;;;;;;;7.24;100.00;102153.13;5078778;28;20086;-71
2022/09/22 05:16:40;;;;;;;21.63;16.35;;;;;;;7.26;100.00;102156.50;5083074;28;20024;-71
2022/09/22 05:19:06;;;;;;;17.45;15.65;;;;;;;7.27;100.00;102155.47;5074772;28;20341;-72
2022/09/22 05:21:31;;;;;;;21.75;15.82;;;;;;;7.22;100.00;102155.16;5072109;28;20073;-71
2022/09/22 05:23:57;;;;;;;18.70;14.98;;;;;;;7.23;100.00;102150.59;5072343;28;20103;-71
2022/09/22 05:26:22;;;;;;;20.52;15.68;;;;;;;7.20;100.00;102162.56;5076623;28;20021;-71
2022/09/22 05:28:49;;;;;;;17.35;15.50;;;;;;;7.20;100.00;102156.31;5072528;28;20025;-71
2022/09/22 05:31:15;;;;;;;20.38;15.95;;;;;;;7.21;100.00;102156.16;5070963;28;20452;-72
2022/09/22 05:33:40;;;;;;;20.88;17.38;;;;;;;7.23;100.00;102158.66;5071859;28;20053;-71
2022/09/22 05:36:06;;;;;;;22.17;16.58;;;;;;;7.22;100.00;102167.78;5071872;28;20055;-72
2022/09/22 05:38:31;;;;;;;19.70;15.48;;;;;;;7.19;100.00;102162.75;5072276;28;20020;-71
2022/09/22 05:40:57;;;;;;;27.05;16.67;;;;;;;7.16;100.00;102166.59;5073404;28;20032;-73
2022/09/22 05:43:22;;;;;;;23.10;16.52;;;;;;;7.18;100.00;102169.94;5071806;28;20111;-73
2022/09/22 05:45:48;;;;;;;33.85;16.95;;;;;;;7.18;100.00;102164.56;5070021;28;20028;-74
2022/09/22 05:48:16;;;;;;;21.85;16.20;;;;;;;7.20;100.00;102167.09;5070525;28;20075;-73
2022/09/22 05:50:42;;;;;;;20.60;16.38;;;;;;;7.21;100.00;102168.78;5070389;28;20076;-72
2022/09/22 05:53:09;;;;;;;24.02;17.00;;;;;;;7.27;100.00;102171.63;5075067;28;20024;-72
2022/09/22 05:55:36;;;;;;;20.20;16.35;;;;;;;7.26;100.00;102166.41;5069996;28;20042;-71
2022/09/22 05:58:02;;;;;;;19.33;16.20;;;;;;;7.32;100.00;102164.91;5083012;28;20036;-72
2022/09/22 06:00:30;;;;;;;23.00;16.35;;;;;;;7.34;100.00;102168.28;5091115;28;20471;-72
2022/09/22 06:02:56;;;;;;;24.08;16.08;;;;;;;7.33;100.00;102167.41;5091862;28;20099;-72
2022/09/22 06:05:24;;;;;;;21.35;15.75;;;;;;;7.35;100.00;102170.78;5092306;28;20054;-75
2022/09/22 06:08:02;;;;;;;21.85;16.15;;;;;;;7.37;100.00;102167.94;5077362;28;20108;-71
2022/09/22 06:10:33;;;;;;;21.02;16.42;;;;;;;7.43;100.00;102172.63;5072133;28;20036;-72
2022/09/22 06:13:07;;;;;;;18.77;15.70;;;;;;;7.47;100.00;102175.81;5071848;28;20020;-73
2022/09/22 06:15:34;;;;;;;23.95;16.70;;;;;;;7.53;100.00;102175.13;5071964;28;20367;-73
2022/09/22 06:18:01;;;;;;;21.27;17.23;;;;;;;7.54;100.00;102169.56;5082823;28;20036;-72
2022/09/22 06:20:28;;;;;;;19.67;16.60;;;;;;;7.62;100.00;102166.00;5092480;28;20024;-73
2022/09/22 06:22:55;;;;;;;19.42;16.58;;;;;;;7.67;100.00;102170.88;5091949;28;20022;-72
2022/09/22 06:25:22;;;;;;;25.65;17.73;;;;;;;7.72;100.00;102165.81;5092094;28;20036;-72
2022/09/22 06:28:01;;;;;;;19.73;16.65;;;;;;;7.78;100.00;102170.50;5090125;28;20226;-74
2022/09/22 06:30:26;;;;;;;21.98;16.58;;;;;;;7.86;100.00;102166.94;5092217;28;20047;-73
2022/09/22 06:32:53;;;;;;;19.90;17.45;;;;;;;7.90;100.00;102168.28;5090850;28;20451;-73
2022/09/22 06:35:18;;;;;;;19.02;16.95;;;;;;;7.97;100.00;102153.91;5090922;28;20633;-73
2022/09/22 06:37:44;;;;;;;21.50;16.60;;;;;;;8.05;100.00;102163.00;5083565;28;20024;-73
2022/09/22 06:40:12;;;;;;;28.42;17.38;;;;;;;8.11;100.00;102160.41;5070211;28;20019;-74
2022/09/22 06:42:37;;;;;;;21.58;16.67;;;;;;;8.16;100.00;102157.19;5070350;28;20059;-75
2022/09/22 06:45:03;;;;;;;49.35;17.85;;;;;;;8.20;100.00;102166.63;5071434;28;20017;-73
2022/09/22 06:47:31;;;;;;;21.27;16.33;;;;;;;8.24;100.00;102164.38;5076255;28;20095;-72
2022/09/22 06:49:56;;;;;;;20.55;16.40;;;;;;;8.30;100.00;102169.94;5092264;28;20023;-71
2022/09/22 06:52:21;;;;;;;21.60;16.33;;;;;;;8.38;100.00;102170.88;5090798;28;20069;-72
2022/09/22 06:54:47;;;;;;;21.45;16.00;;;;;;;8.48;100.00;102167.00;5093993;28;20149;-71
2022/09/22 06:57:12;;;;;;;20.35;15.93;;;;;;;8.55;100.00;102171.66;5094676;28;20028;-72
2022/09/22 06:59:40;;;;;;;19.73;16.38;;;;;;;8.61;100.00;102171.78;5095756;28;20031;-72
2022/09/22 07:02:06;;;;;;;23.55;16.60;;;;;;;8.68;100.00;102164.66;5091785;28;20051;-67
2022/09/22 07:04:32;;;;;;;24.88;17.75;;;;;;;8.74;100.00;102164.94;5095363;28;20534;-69
2022/09/22 07:06:58;;;;;;;21.90;16.52;;;;;;;8.83;100.00;102153.03;5094192;28;20516;-70
2022/09/22 07:09:23;;;;;;;23.85;17.13;;;;;;;8.90;100.00;102155.88;5094630;28;20024;-71
2022/09/22 07:11:49;;;;;;;27.30;17.35;;;;;;;8.95;100.00;102151.63;5095156;28;20020;-70
2022/09/22 07:14:14;;;;;;;20.25;15.93;;;;;;;9.07;100.00;102156.56;5095405;28;20102;-70
2022/09/22 07:16:40;;;;;;;24.15;16.58;;;;;;;9.09;100.00;102152.66;5095374;28;20031;-69
2022/09/22 07:19:05;;;;;;;20.67;16.35;;;;;;;9.17;100.00;102160.69;5075997;28;20025;-68
2022/09/22 07:21:35;;;;;;;23.77;16.90;;;;;;;9.23;100.00;102153.72;5075094;28;20028;-70
2022/09/22 07:24:01;;;;;;;20.90;15.60;;;;;;;9.30;100.00;102160.06;5075159;28;20032;-69
2022/09/22 07:26:31;;;;;;;21.95;15.70;;;;;;;9.38;100.00;102151.88;5075128;28;20032;-75
2022/09/22 07:29:04;;;;;;;22.65;16.38;;;;;;;9.49;100.00;102153.25;5073099;28;20031;-74
2022/09/22 07:31:33;;;;;;;20.15;15.55;;;;;;;9.61;100.00;102152.81;5074894;28;20020;-74
2022/09/22 07:33:59;;;;;;;22.10;15.50;;;;;;;9.67;100.00;102149.38;5074512;28;20074;-71
2022/09/22 07:36:26;;;;;;;22.58;14.73;;;;;;;9.78;100.00;102146.16;5074821;28;20032;-72
2022/09/22 07:38:53;;;;;;;23.25;14.85;;;;;;;9.89;100.00;102158.41;5089801;28;20031;-71
2022/09/22 07:41:26;;;;;;;27.98;14.98;;;;;;;9.92;100.00;102148.03;5094807;28;20112;-70
2022/09/22 07:43:55;;;;;;;20.27;14.25;;;;;;;10.10;100.00;102154.91;5094757;28;20027;-72
2022/09/22 07:46:20;;;;;;;21.08;14.27;;;;;;;10.18;100.00;102145.84;5094922;28;20020;-74
2022/09/22 07:48:46;;;;;;;26.38;13.40;;;;;;;10.22;100.00;102152.53;5092868;28;20035;-73
2022/09/22 07:51:20;;;;;;;24.08;14.02;;;;;;;10.29;100.00;102154.28;5094526;28;20028;-73
2022/09/22 07:53:48;;;;;;;19.10;12.52;;;;;;;10.36;100.00;102153.56;5093406;28;20023;-71
2022/09/22 07:56:16;;;;;;;15.65;11.40;;;;;;;10.47;100.00;102158.47;5094276;28;20416;-72
2022/09/22 07:58:52;;;;;;;18.42;11.80;;;;;;;10.49;100.00;102150.97;5093188;28;20481;-71
2022/09/22 08:01:20;;;;;;;14.57;9.73;;;;;;;10.61;100.00;102154.03;5092252;28;20024;-69
2022/09/22 08:03:46;;;;;;;14.75;9.82;;;;;;;10.74;100.00;102151.44;5094510;28;20024;-69
2022/09/22 08:06:13;;;;;;;15.48;9.60;;;;;;;10.79;100.00;102143.59;5093838;28;20102;-68
2022/09/22 08:08:41;;;;;;;14.55;9.52;;;;;;;10.85;100.00;102144.66;5093184;28;20039;-69
2022/09/22 08:11:13;;;;;;;16.58;9.35;;;;;;;11.05;100.00;102146.69;5092903;28;20054;-72
2022/09/22 08:13:41;;;;;;;13.68;9.50;;;;;;;11.03;100.00;102146.06;5094339;28;20070;-70
2022/09/22 08:16:06;;;;;;;13.90;8.15;;;;;;;11.07;100.00;102141.94;5094051;28;20034;-71
2022/09/22 08:18:34;;;;;;;10.80;8.45;;;;;;;11.09;100.00;102142.56;5091779;28;20374;-71
2022/09/22 08:21:00;;;;;;;12.05;8.48;;;;;;;11.11;100.00;102146.75;5093923;28;20031;-71
2022/09/22 08:23:26;;;;;;;10.88;8.73;;;;;;;11.19;100.00;102140.34;5093798;28;20073;-70
2022/09/22 08:25:51;;;;;;;13.70;9.40;;;;;;;11.27;100.00;102137.50;5093787;28;20024;-70
2022/09/22 08:28:17;;;;;;;11.82;9.00;;;;;;;11.35;100.00;102136.50;5091363;28;20035;-70
2022/09/22 08:30:46;;;;;;;10.93;8.32;;;;;;;11.46;100.00;102138.66;5094116;28;20020;-70
2022/09/22 08:33:12;;;;;;;10.35;8.65;;;;;;;11.48;100.00;102131.16;5093323;28;20031;-70
2022/09/22 08:35:37;;;;;;;11.82;8.40;;;;;;;11.51;100.00;102130.75;5093968;28;20044;-70
2022/09/22 08:38:03;;;;;;;13.68;9.00;;;;;;;11.56;100.00;102132.03;5092541;28;20417;-71
2022/09/22 08:40:30;;;;;;;9.18;7.93;;;;;;;11.60;100.00;102122.47;5092531;28;20031;-71
2022/09/22 08:42:58;;;;;;;14.15;9.50;;;;;;;11.67;100.00;102126.88;5092246;28;20020;-71
